Legacy — WDG4891 — position and weather

sailwx.info

Track history (hours):
 
Tides and Currents Weather Stations Pressure Air Temp Water Temp Dewpoint Dewpoint Depression Visibility Wind Speed Wind Dir Waves Ship Positions

Legacy

Owner: Enterprise Marine Services, LLC, San Antonio, TX. More information available from US FCC via Universal Licensing System and Coast Guard Vessel Documentation Center.

Last reported at 2017-Oct-21 17:06 UTC. Time now 2017-Oct-22 19:14 UTC.
Position N 29°47' W 095°05'.

Length 25 m; draft 2.7 m.

Type: . MMSI: 367541160.

Date/timePositionNaut miles runAvg speedWind from/ knotsBaromVisibWave heightAir tempDewpointWater temp
2017-Oct-21 17:06N 29°47' W 095°05'0 0.0
2017-Oct-21 16:45N 29°47' W 095°05'0 0.0
2017-Oct-21 16:19N 29°47' W 095°05'0 0.0
2017-Oct-21 14:53N 29°47' W 095°05'0 0.0
2017-Oct-21 13:59N 29°47' W 095°05'0 0.0
2017-Oct-21 13:30N 29°47' W 095°05'0 0.0
2017-Oct-21 12:59N 29°47' W 095°05'0 0.0
2017-Oct-21 12:28N 29°47' W 095°05'0 0.0
2017-Oct-21 10:42N 29°47' W 095°05'0 0.0
2017-Oct-21 10:28N 29°47' W 095°05'0 0.0
2017-Oct-21 09:46N 29°47' W 095°05'0 0.0
2017-Oct-21 09:28N 29°47' W 095°05'0 0.0
2017-Oct-21 08:54N 29°47' W 095°05'0 0.0
2017-Oct-21 08:04N 29°47' W 095°05'0 0.0
2017-Oct-21 07:52N 29°47' W 095°05'0 0.0
2017-Oct-21 07:26N 29°47' W 095°05'0 0.0
2017-Oct-21 06:50N 29°47' W 095°05'0 0.0
2017-Oct-21 05:43N 29°47' W 095°05'0 0.0
2017-Oct-21 05:24N 29°47' W 095°05'0 0.0
2017-Oct-21 04:59N 29°47' W 095°05'0 0.0
2017-Oct-21 04:30N 29°47' W 095°05'0 0.0
2017-Oct-21 03:56N 29°47' W 095°05'0 0.0
2017-Oct-21 03:19N 29°47' W 095°05'0 0.0
2017-Oct-21 02:55N 29°47' W 095°05'0 0.0
2017-Oct-21 02:20N 29°47' W 095°05'0 0.0
2017-Oct-19 13:31N 29°47' W 095°05'2 1.4
2017-Oct-19 12:24N 29°46' W 095°04'2 4.4
2017-Oct-19 12:01N 29°44' W 095°03'3 6.0
2017-Oct-19 11:31N 29°42' W 095°01'3 6.8
2017-Oct-19 11:01N 29°40' W 094°58'4 7.2
2017-Oct-19 10:31N 29°36' W 094°57'4 7.2
2017-Oct-19 10:00N 29°33' W 094°55'4 7.4
2017-Oct-19 09:30N 29°30' W 094°52'  
2017-Oct-14 14:17N 29°59' W 093°53'0 0.0
2017-Oct-14 13:56N 29°59' W 093°53'0 0.0
2017-Oct-14 11:05N 29°59' W 093°53'0 0.0
2017-Oct-14 10:59N 29°59' W 093°53'  
Track history (hours):
 
Tides and Currents Weather Stations Pressure Air Temp Water Temp Dewpoint Dewpoint Depression Visibility Wind Speed Wind Dir Waves Ship Positions

Legacy

Owner: Enterprise Marine Services, LLC, San Antonio, TX. More information available from US FCC via Universal Licensing System and Coast Guard Vessel Documentation Center.

Last reported at 2017-Oct-21 17:06 UTC. Time now 2017-Oct-22 19:14 UTC.
Position N 29°47' W 095°05'.

Length 25 m; draft 2.7 m.

Type: . MMSI: 367541160.

Date/timePositionNaut miles runAvg speedWind from/ knotsBaromVisibWave heightAir tempDewpointWater temp
2017-Oct-21 17:06N 29°47' W 095°05'0 0.0
2017-Oct-21 16:45N 29°47' W 095°05'0 0.0
2017-Oct-21 16:19N 29°47' W 095°05'0 0.0
2017-Oct-21 14:53N 29°47' W 095°05'0 0.0
2017-Oct-21 13:59N 29°47' W 095°05'0 0.0
2017-Oct-21 13:30N 29°47' W 095°05'0 0.0
2017-Oct-21 12:59N 29°47' W 095°05'0 0.0
2017-Oct-21 12:28N 29°47' W 095°05'0 0.0
2017-Oct-21 10:42N 29°47' W 095°05'0 0.0
2017-Oct-21 10:28N 29°47' W 095°05'0 0.0
2017-Oct-21 09:46N 29°47' W 095°05'0 0.0
2017-Oct-21 09:28N 29°47' W 095°05'0 0.0
2017-Oct-21 08:54N 29°47' W 095°05'0 0.0
2017-Oct-21 08:04N 29°47' W 095°05'0 0.0
2017-Oct-21 07:52N 29°47' W 095°05'0 0.0
2017-Oct-21 07:26N 29°47' W 095°05'0 0.0
2017-Oct-21 06:50N 29°47' W 095°05'0 0.0
2017-Oct-21 05:43N 29°47' W 095°05'0 0.0
2017-Oct-21 05:24N 29°47' W 095°05'0 0.0
2017-Oct-21 04:59N 29°47' W 095°05'0 0.0
2017-Oct-21 04:30N 29°47' W 095°05'0 0.0
2017-Oct-21 03:56N 29°47' W 095°05'0 0.0
2017-Oct-21 03:19N 29°47' W 095°05'0 0.0
2017-Oct-21 02:55N 29°47' W 095°05'0 0.0
2017-Oct-21 02:20N 29°47' W 095°05'0 0.0
2017-Oct-19 13:31N 29°47' W 095°05'2 1.4
2017-Oct-19 12:24N 29°46' W 095°04'2 4.4
2017-Oct-19 12:01N 29°44' W 095°03'3 6.0
2017-Oct-19 11:31N 29°42' W 095°01'3 6.8
2017-Oct-19 11:01N 29°40' W 094°58'4 7.2
2017-Oct-19 10:31N 29°36' W 094°57'4 7.2
2017-Oct-19 10:00N 29°33' W 094°55'4 7.4
2017-Oct-19 09:30N 29°30' W 094°52'  
2017-Oct-14 14:17N 29°59' W 093°53'0 0.0
2017-Oct-14 13:56N 29°59' W 093°53'0 0.0
2017-Oct-14 11:05N 29°59' W 093°53'0 0.0
2017-Oct-14 10:59N 29°59' W 093°53'  

Dump ship's entire track history